createdAt,value
2022-08-09T00:00:00.295Z,9.10
2022-08-09T00:04:06.320Z,7.32
2022-08-09T00:08:04.183Z,9.32
2022-08-09T00:12:04.710Z,7.28
2022-08-09T00:16:02.286Z,7.45
2022-08-09T00:19:55.500Z,7.65
2022-08-09T00:23:56.010Z,7.68
2022-08-09T00:27:52.228Z,7.38
2022-08-09T00:31:59.168Z,7.00
2022-08-09T00:35:53.482Z,9.50
2022-08-09T00:40:12.431Z,7.18
2022-08-09T00:44:12.957Z,11.40
2022-08-09T00:48:15.441Z,8.30
2022-08-09T00:52:17.752Z,10.38
2022-08-09T00:56:10.504Z,7.75
2022-08-09T01:00:20.544Z,8.73
2022-08-09T01:04:38.324Z,7.88
2022-08-09T01:09:17.468Z,6.30
2022-08-09T01:13:53.448Z,7.22
2022-08-09T01:18:04.905Z,10.02
2022-08-09T01:22:43.271Z,8.07
2022-08-09T01:26:57.461Z,7.72
2022-08-09T01:30:54.849Z,11.18
2022-08-09T01:34:54.762Z,7.47
2022-08-09T01:38:49.369Z,8.18
2022-08-09T01:42:42.795Z,9.18
2022-08-09T01:46:41.910Z,8.80
2022-08-09T01:50:41.868Z,9.05
2022-08-09T01:54:41.320Z,9.23
2022-08-09T01:58:35.091Z,6.32
2022-08-09T02:02:31.760Z,9.55
2022-08-09T02:06:45.482Z,7.13
2022-08-09T02:10:51.825Z,9.32
2022-08-09T02:18:42.769Z,9.98
2022-08-09T02:22:45.636Z,7.47
2022-08-09T02:26:40.378Z,8.00
2022-08-09T02:30:42.411Z,8.98
2022-08-09T02:34:40.469Z,11.65
2022-08-09T02:38:38.537Z,8.43
2022-08-09T02:42:38.982Z,8.88
2022-08-09T02:46:34.204Z,10.25
2022-08-09T02:50:45.267Z,9.45
2022-08-09T02:54:54.183Z,13.68
2022-08-09T02:58:49.444Z,11.30
2022-08-09T03:03:00.169Z,9.63
2022-08-09T03:06:54.258Z,8.45
2022-08-09T03:10:50.905Z,9.35
2022-08-09T03:14:45.718Z,9.82
2022-08-09T03:18:42.161Z,11.20
2022-08-09T03:22:41.735Z,9.27
2022-08-09T03:26:44.936Z,15.02
2022-08-09T03:30:38.543Z,9.75
2022-08-09T03:34:31.236Z,9.45
2022-08-09T03:38:28.836Z,9.00
2022-08-09T03:42:28.859Z,9.93
2022-08-09T03:46:29.266Z,12.38
2022-08-09T03:50:27.879Z,12.23
2022-08-09T03:54:29.527Z,7.75
2022-08-09T03:58:23.186Z,10.45
2022-08-09T04:02:19.803Z,12.93
2022-08-09T04:06:20.469Z,11.18
2022-08-09T04:10:13.406Z,8.82
2022-08-09T04:14:53.734Z,12.15
2022-08-09T04:18:21.540Z,11.00
2022-08-09T04:22:14.455Z,11.07
2022-08-09T04:26:09.762Z,11.10
2022-08-09T04:30:02.511Z,10.30
2022-08-09T04:33:59.311Z,8.90
2022-08-09T04:37:52.076Z,12.70
2022-08-09T04:41:46.170Z,7.50
2022-08-09T04:45:53.105Z,8.45
2022-08-09T04:49:54.658Z,8.52
2022-08-09T04:53:51.238Z,8.65
2022-08-09T04:57:54.139Z,7.18
2022-08-09T05:01:54.768Z,9.13
2022-08-09T05:05:52.048Z,9.73
2022-08-09T05:09:49.861Z,9.88
2022-08-09T05:13:43.090Z,14.25
2022-08-09T05:18:38.942Z,13.18
2022-08-09T05:21:55.639Z,16.45
2022-08-09T05:25:50.833Z,10.70
2022-08-09T05:29:43.958Z,13.85
2022-08-09T05:33:42.549Z,13.48
2022-08-09T05:37:44.741Z,14.00
2022-08-09T05:41:41.337Z,15.15
2022-08-09T05:45:53.035Z,17.92
2022-08-09T05:50:32.361Z,15.93
2022-08-09T05:53:59.429Z,12.73
2022-08-09T05:57:57.134Z,15.75
2022-08-09T06:01:50.598Z,13.52
2022-08-09T06:06:04.489Z,10.23
2022-08-09T06:10:02.812Z,9.80
2022-08-09T06:13:56.530Z,11.85
2022-08-09T06:17:48.889Z,11.85
2022-08-09T06:21:51.410Z,11.35
2022-08-09T06:25:55.145Z,14.68
2022-08-09T06:30:04.255Z,13.73
2022-08-09T06:34:00.742Z,13.38
2022-08-09T06:38:05.981Z,13.93
2022-08-09T06:42:09.303Z,14.03
2022-08-09T06:46:06.311Z,11.15
2022-08-09T06:54:14.858Z,12.60
2022-08-09T06:58:07.946Z,11.55
2022-08-09T07:02:20.951Z,9.55
2022-08-09T07:06:13.988Z,9.68
2022-08-09T07:10:22.396Z,11.88
2022-08-09T07:14:26.554Z,11.63
2022-08-09T07:18:19.661Z,10.13
2022-08-09T07:22:12.270Z,9.48
2022-08-09T07:26:07.005Z,8.75
2022-08-09T07:30:01.750Z,7.85
2022-08-09T07:33:55.842Z,8.57
2022-08-09T07:37:49.311Z,8.80
2022-08-09T07:41:42.022Z,8.10
2022-08-09T07:45:40.545Z,7.13
2022-08-09T07:50:05.299Z,6.80
2022-08-09T07:54:07.321Z,7.82
2022-08-09T07:58:01.128Z,16.40
2022-08-09T08:01:56.127Z,9.55
2022-08-09T08:05:54.077Z,7.68
2022-08-09T08:09:53.642Z,9.77
2022-08-09T08:13:56.350Z,7.97
2022-08-09T08:17:58.004Z,8.25
2022-08-09T08:21:53.116Z,7.07
2022-08-09T08:25:49.903Z,8.13
2022-08-09T08:29:48.474Z,7.30
2022-08-09T08:33:52.468Z,6.60
2022-08-09T08:38:02.202Z,6.40
2022-08-09T08:42:00.130Z,7.15
2022-08-09T08:46:10.118Z,7.82
2022-08-09T08:50:18.286Z,8.43
2022-08-09T08:54:20.298Z,7.30
2022-08-09T08:58:27.116Z,7.70
2022-08-09T09:02:31.116Z,5.97
2022-08-09T09:06:24.922Z,5.95
2022-08-09T09:10:18.264Z,6.57
2022-08-09T09:14:18.158Z,7.38
2022-08-09T09:18:17.573Z,7.80
2022-08-09T09:22:26.935Z,5.45
2022-08-09T09:26:26.171Z,9.13
2022-08-09T09:30:38.200Z,5.15
2022-08-09T09:34:32.255Z,6.32
2022-08-09T09:38:42.738Z,6.13
2022-08-09T09:42:36.447Z,4.82
2022-08-09T09:46:41.920Z,6.30
2022-08-09T09:50:49.792Z,7.63
2022-08-09T09:54:48.598Z,9.20
2022-08-09T09:58:49.222Z,10.27
2022-08-09T10:02:46.859Z,5.85
2022-08-09T10:06:43.054Z,5.30
2022-08-09T10:10:36.216Z,6.25
2022-08-09T10:14:33.440Z,6.85
2022-08-09T10:18:26.253Z,6.00
2022-08-09T10:22:31.140Z,5.47
2022-08-09T10:26:26.813Z,5.85
2022-08-09T10:34:36.042Z,4.65
2022-08-09T10:38:54.443Z,6.88
2022-08-09T10:42:41.327Z,4.82
2022-08-09T10:48:12.524Z,6.07
2022-08-09T10:51:41.203Z,5.63
2022-08-09T10:55:35.827Z,4.32
2022-08-09T10:59:57.950Z,5.53
2022-08-09T11:08:47.548Z,6.65
2022-08-09T11:12:40.726Z,7.25
2022-08-09T11:16:39.312Z,4.63
2022-08-09T11:20:45.527Z,4.85
2022-08-09T11:25:10.462Z,6.00
2022-08-09T11:29:04.620Z,8.30
2022-08-09T11:33:10.503Z,7.32
2022-08-09T11:37:07.614Z,6.38
2022-08-09T11:41:05.368Z,6.95
2022-08-09T11:44:57.968Z,11.38
2022-08-09T11:48:53.712Z,5.90
2022-08-09T11:53:15.454Z,6.15
2022-08-09T11:57:47.443Z,7.10
2022-08-09T12:02:16.860Z,4.72
2022-08-09T12:06:12.951Z,5.60
2022-08-09T12:10:08.666Z,7.88
2022-08-09T12:14:40.977Z,7.20
2022-08-09T12:18:49.009Z,8.25
2022-08-09T12:22:47.801Z,5.57
2022-08-09T12:28:58.633Z,6.18
2022-08-09T12:31:11.315Z,7.57
2022-08-09T12:35:19.352Z,7.32
2022-08-09T12:39:14.912Z,4.78
2022-08-09T12:43:07.496Z,6.75
2022-08-09T12:47:00.036Z,7.00
2022-08-09T12:50:54.822Z,6.25
2022-08-09T12:55:03.321Z,5.03
2022-08-09T12:59:11.889Z,8.00
2022-08-09T13:03:06.485Z,10.98
2022-08-09T13:07:16.941Z,4.82
2022-08-09T13:11:22.886Z,7.13
2022-08-09T13:15:17.009Z,4.47
2022-08-09T13:19:11.816Z,8.45
2022-08-09T13:24:06.617Z,3.60
2022-08-09T13:27:40.152Z,7.63
2022-08-09T13:32:16.348Z,5.00
2022-08-09T13:36:39.876Z,4.63
2022-08-09T13:41:50.896Z,4.40
2022-08-09T13:44:37.927Z,5.97
2022-08-09T13:48:34.797Z,5.63
2022-08-09T13:52:29.082Z,4.78
2022-08-09T13:56:21.707Z,6.50
2022-08-09T14:00:20.148Z,3.92
2022-08-09T14:04:13.691Z,5.27
2022-08-09T14:08:07.200Z,3.78
2022-08-09T14:12:06.123Z,3.78
2022-08-09T14:16:13.901Z,4.25
2022-08-09T14:20:07.481Z,5.85
2022-08-09T14:24:05.406Z,5.32
2022-08-09T14:28:03.163Z,4.68
2022-08-09T14:31:55.644Z,4.20
2022-08-09T14:35:52.755Z,3.95
2022-08-09T14:39:48.607Z,5.25
2022-08-09T14:43:47.403Z,6.65
2022-08-09T14:47:49.597Z,6.40
2022-08-09T14:51:51.780Z,5.95
2022-08-09T14:55:51.154Z,7.47
2022-08-09T14:59:48.097Z,5.15
2022-08-09T15:03:42.191Z,4.65
2022-08-09T15:07:36.186Z,6.80
2022-08-09T15:11:29.113Z,5.97
2022-08-09T15:15:23.565Z,6.43
2022-08-09T15:19:18.277Z,4.72
2022-08-09T15:24:00.919Z,5.10
2022-08-09T15:27:25.084Z,4.63
2022-08-09T15:31:20.269Z,4.97
2022-08-09T15:35:18.301Z,5.50
2022-08-09T15:39:25.475Z,4.53
2022-08-09T15:43:36.756Z,4.95
2022-08-09T15:47:43.589Z,7.30
2022-08-09T15:52:02.785Z,4.22
2022-08-09T15:56:21.735Z,7.20
2022-08-09T16:00:24.214Z,4.18
2022-08-09T16:04:16.868Z,4.10
2022-08-09T16:08:29.662Z,4.78
2022-08-09T16:12:23.612Z,5.97
2022-08-09T16:16:19.295Z,8.18
2022-08-09T16:20:13.142Z,6.13
2022-08-09T16:24:08.810Z,5.28
2022-08-09T16:28:13.718Z,7.45
2022-08-09T16:32:18.618Z,4.25
2022-08-09T16:36:19.757Z,7.30
2022-08-09T16:40:29.463Z,6.85
2022-08-09T16:44:28.761Z,7.63
2022-08-09T16:48:41.894Z,11.50
2022-08-09T16:52:36.336Z,6.45
2022-08-09T16:56:30.697Z,8.65
2022-08-09T17:00:23.415Z,5.45
2022-08-09T17:04:25.583Z,4.15
2022-08-09T17:08:47.004Z,9.82
2022-08-09T17:12:33.460Z,8.18
2022-08-09T17:16:26.212Z,4.47
2022-08-09T17:20:29.869Z,4.95
2022-08-09T17:24:30.986Z,8.30
2022-08-09T17:28:26.763Z,6.38
2022-08-09T17:32:34.677Z,6.00
2022-08-09T17:36:27.884Z,6.13
2022-08-09T17:40:20.572Z,5.00
2022-08-09T17:44:38.230Z,7.05
2022-08-09T17:48:31.379Z,5.15
2022-08-09T17:52:24.254Z,5.40
2022-08-09T17:56:18.195Z,5.03
2022-08-09T18:00:12.439Z,4.82
2022-08-09T18:04:05.300Z,9.52
2022-08-09T18:07:58.088Z,7.93
2022-08-09T18:12:15.317Z,4.88
2022-08-09T18:16:08.693Z,6.57
2022-08-09T18:21:01.200Z,3.90
2022-08-09T18:24:15.250Z,5.80
2022-08-09T18:28:20.974Z,7.18
2022-08-09T18:32:20.903Z,4.93
2022-08-09T18:36:14.214Z,2.58
2022-08-09T18:40:18.505Z,4.63
2022-08-09T18:44:19.818Z,7.90
2022-08-09T18:48:17.693Z,2.80
2022-08-09T18:52:12.298Z,2.53
2022-08-09T18:56:05.912Z,5.57
2022-08-09T19:00:03.698Z,5.38
2022-08-09T19:04:06.391Z,4.20
2022-08-09T19:08:09.887Z,4.82
2022-08-09T19:12:04.372Z,3.80
2022-08-09T19:15:57.292Z,3.83
2022-08-09T19:19:51.567Z,2.92
2022-08-09T19:24:36.358Z,4.63
2022-08-09T19:28:05.805Z,3.60
2022-08-09T19:32:00.021Z,4.57
2022-08-09T19:35:57.835Z,4.47
2022-08-09T19:40:04.317Z,4.90
2022-08-09T19:44:02.538Z,2.72
2022-08-09T19:47:55.612Z,4.45
2022-08-09T19:51:55.685Z,3.88
2022-08-09T19:56:01.851Z,3.92
2022-08-09T20:00:02.438Z,2.67
2022-08-09T20:04:17.881Z,2.80
2022-08-09T20:08:12.489Z,4.00
2022-08-09T20:12:09.741Z,2.30
2022-08-09T20:16:38.055Z,6.47
2022-08-09T20:20:32.563Z,1.77
2022-08-09T20:24:29.705Z,2.10
2022-08-09T20:28:31.987Z,3.80
2022-08-09T20:32:33.306Z,2.67
2022-08-09T20:36:38.218Z,6.28
2022-08-09T20:40:31.008Z,5.25
2022-08-09T20:44:26.993Z,2.05
2022-08-09T20:48:22.879Z,4.30
2022-08-09T20:52:15.305Z,7.80
2022-08-09T20:56:21.271Z,2.47
2022-08-09T21:00:20.088Z,4.22
2022-08-09T21:05:52.139Z,5.40
2022-08-09T21:08:36.576Z,4.25
2022-08-09T21:16:43.696Z,3.17
2022-08-09T21:20:38.467Z,7.97
2022-08-09T21:24:33.867Z,3.63
2022-08-09T21:28:35.133Z,6.35
2022-08-09T21:32:33.587Z,4.53
2022-08-09T21:36:30.622Z,2.10
2022-08-09T21:40:30.761Z,2.28
2022-08-09T21:44:32.904Z,4.00
2022-08-09T21:48:27.863Z,4.97
2022-08-09T21:52:21.552Z,3.40
2022-08-09T21:56:34.108Z,3.65
2022-08-09T22:00:33.062Z,2.47
2022-08-09T22:04:56.940Z,3.50
2022-08-09T22:08:38.581Z,3.05
2022-08-09T22:12:38.751Z,4.25
2022-08-09T22:16:36.814Z,4.57
2022-08-09T22:20:31.476Z,3.45
2022-08-09T22:24:25.000Z,2.05
2022-08-09T22:28:29.414Z,3.47
2022-08-09T22:36:24.066Z,2.75
2022-08-09T22:40:19.989Z,4.20
2022-08-09T22:44:13.082Z,3.20
2022-08-09T22:48:29.958Z,2.85
2022-08-09T22:52:18.534Z,1.88
2022-08-09T22:56:33.258Z,2.75
2022-08-09T23:00:25.298Z,2.58
2022-08-09T23:04:21.845Z,2.03
2022-08-09T23:08:36.998Z,3.38
2022-08-09T23:12:29.408Z,4.68
2022-08-09T23:16:22.959Z,3.55
2022-08-09T23:20:15.521Z,4.93
2022-08-09T23:24:08.554Z,3.72
2022-08-09T23:28:15.387Z,3.10
2022-08-09T23:32:08.728Z,3.38
2022-08-09T23:36:04.507Z,3.42
2022-08-09T23:39:59.105Z,2.55
2022-08-09T23:43:55.063Z,3.25
2022-08-09T23:47:47.777Z,4.20
2022-08-09T23:51:40.261Z,3.88
2022-08-09T23:55:33.310Z,3.65
2022-08-09T23:59:48.899Z,9.82
